sensor_id;sensor_type;location;lat;lon;timestamp;P1;durP1;ratioP1;P2;durP2;ratioP2
76357;SDS011;65185;21.060;105.826;2023-06-14T00:00:41;49.05;;;24.27;;
76357;SDS011;65185;21.060;105.826;2023-06-14T00:03:10;47.38;;;24.70;;
76357;SDS011;65185;21.060;105.826;2023-06-14T00:05:38;44.90;;;23.55;;
76357;SDS011;65185;21.060;105.826;2023-06-14T00:08:11;44.20;;;23.23;;
76357;SDS011;65185;21.060;105.826;2023-06-14T00:10:38;42.83;;;22.45;;
76357;SDS011;65185;21.060;105.826;2023-06-14T00:13:10;45.65;;;23.35;;
76357;SDS011;65185;21.060;105.826;2023-06-14T00:15:38;43.03;;;22.05;;
76357;SDS011;65185;21.060;105.826;2023-06-14T00:18:05;40.17;;;21.60;;
76357;SDS011;65185;21.060;105.826;2023-06-14T00:20:37;40.53;;;20.83;;
76357;SDS011;65185;21.060;105.826;2023-06-14T00:23:05;42.38;;;21.88;;
76357;SDS011;65185;21.060;105.826;2023-06-14T00:25:32;42.22;;;21.52;;
76357;SDS011;65185;21.060;105.826;2023-06-14T00:27:58;40.85;;;23.23;;
76357;SDS011;65185;21.060;105.826;2023-06-14T00:30:26;40.15;;;21.23;;
76357;SDS011;65185;21.060;105.826;2023-06-14T00:32:56;39.72;;;21.85;;
76357;SDS011;65185;21.060;105.826;2023-06-14T00:35:23;40.75;;;22.15;;
76357;SDS011;65185;21.060;105.826;2023-06-14T00:37:51;41.95;;;22.38;;
76357;SDS011;65185;21.060;105.826;2023-06-14T00:40:20;38.42;;;21.38;;
76357;SDS011;65185;21.060;105.826;2023-06-14T00:42:47;42.80;;;22.83;;
76357;SDS011;65185;21.060;105.826;2023-06-14T00:45:15;38.75;;;21.35;;
76357;SDS011;65185;21.060;105.826;2023-06-14T00:47:42;38.13;;;21.90;;
76357;SDS011;65185;21.060;105.826;2023-06-14T00:50:11;35.42;;;22.00;;
76357;SDS011;65185;21.060;105.826;2023-06-14T00:52:38;32.20;;;18.75;;
76357;SDS011;65185;21.060;105.826;2023-06-14T00:55:06;35.63;;;19.70;;
76357;SDS011;65185;21.060;105.826;2023-06-14T00:57:33;32.33;;;18.58;;
76357;SDS011;65185;21.060;105.826;2023-06-14T01:00:03;27.88;;;17.05;;
76357;SDS011;65185;21.060;105.826;2023-06-14T01:02:35;27.33;;;15.90;;
76357;SDS011;65185;21.060;105.826;2023-06-14T01:05:03;28.80;;;17.58;;
76357;SDS011;65185;21.060;105.826;2023-06-14T01:15:47;26.20;;;16.75;;
76357;SDS011;65185;21.060;105.826;2023-06-14T01:18:17;26.20;;;17.10;;
76357;SDS011;65185;21.060;105.826;2023-06-14T01:20:44;25.85;;;16.33;;
76357;SDS011;65185;21.060;105.826;2023-06-14T01:23:16;26.10;;;16.45;;
76357;SDS011;65185;21.060;105.826;2023-06-14T01:25:43;24.40;;;15.25;;
76357;SDS011;65185;21.060;105.826;2023-06-14T01:28:10;21.20;;;14.13;;
76357;SDS011;65185;21.060;105.826;2023-06-14T01:30:39;24.45;;;13.80;;
76357;SDS011;65185;21.060;105.826;2023-06-14T01:33:14;18.17;;;12.00;;
76357;SDS011;65185;21.060;105.826;2023-06-14T01:35:47;20.73;;;13.23;;
76357;SDS011;65185;21.060;105.826;2023-06-14T01:38:20;19.50;;;12.20;;
76357;SDS011;65185;21.060;105.826;2023-06-14T01:40:49;18.52;;;11.02;;
76357;SDS011;65185;21.060;105.826;2023-06-14T01:43:18;18.13;;;11.38;;
76357;SDS011;65185;21.060;105.826;2023-06-14T01:45:46;19.77;;;11.32;;
76357;SDS011;65185;21.060;105.826;2023-06-14T01:48:14;17.58;;;11.02;;
76357;SDS011;65185;21.060;105.826;2023-06-14T01:50:41;21.10;;;12.50;;
76357;SDS011;65185;21.060;105.826;2023-06-14T01:53:08;21.50;;;12.63;;
76357;SDS011;65185;21.060;105.826;2023-06-14T01:55:36;19.55;;;11.88;;
76357;SDS011;65185;21.060;105.826;2023-06-14T01:58:04;18.67;;;12.38;;
76357;SDS011;65185;21.060;105.826;2023-06-14T02:00:31;19.17;;;12.52;;
76357;SDS011;65185;21.060;105.826;2023-06-14T02:02:58;21.08;;;14.07;;
76357;SDS011;65185;21.060;105.826;2023-06-14T02:05:25;25.48;;;15.70;;
76357;SDS011;65185;21.060;105.826;2023-06-14T02:07:52;23.95;;;16.98;;
76357;SDS011;65185;21.060;105.826;2023-06-14T02:10:19;25.70;;;17.58;;
76357;SDS011;65185;21.060;105.826;2023-06-14T02:12:46;25.38;;;17.77;;
76357;SDS011;65185;21.060;105.826;2023-06-14T02:15:13;28.80;;;19.05;;
76357;SDS011;65185;21.060;105.826;2023-06-14T02:20:12;33.83;;;22.63;;
76357;SDS011;65185;21.060;105.826;2023-06-14T02:22:40;29.38;;;20.88;;
76357;SDS011;65185;21.060;105.826;2023-06-14T02:25:07;34.20;;;21.67;;
76357;SDS011;65185;21.060;105.826;2023-06-14T02:27:34;31.27;;;21.27;;
76357;SDS011;65185;21.060;105.826;2023-06-14T02:30:01;34.22;;;22.88;;
76357;SDS011;65185;21.060;105.826;2023-06-14T02:32:29;32.85;;;21.98;;
76357;SDS011;65185;21.060;105.826;2023-06-14T02:34:55;32.38;;;21.13;;
76357;SDS011;65185;21.060;105.826;2023-06-14T02:37:22;27.23;;;19.30;;
76357;SDS011;65185;21.060;105.826;2023-06-14T02:39:49;27.20;;;18.73;;
76357;SDS011;65185;21.060;105.826;2023-06-14T02:42:16;29.98;;;19.30;;
76357;SDS011;65185;21.060;105.826;2023-06-14T02:44:42;29.00;;;19.05;;
76357;SDS011;65185;21.060;105.826;2023-06-14T02:47:12;31.05;;;19.85;;
76357;SDS011;65185;21.060;105.826;2023-06-14T02:49:38;27.00;;;19.52;;
76357;SDS011;65185;21.060;105.826;2023-06-14T02:52:05;27.27;;;18.27;;
76357;SDS011;65185;21.060;105.826;2023-06-14T02:54:32;26.80;;;18.77;;
76357;SDS011;65185;21.060;105.826;2023-06-14T02:56:59;28.85;;;19.30;;
76357;SDS011;65185;21.060;105.826;2023-06-14T02:59:25;27.80;;;18.50;;
76357;SDS011;65185;21.060;105.826;2023-06-14T03:01:52;24.73;;;18.60;;
76357;SDS011;65185;21.060;105.826;2023-06-14T03:04:19;29.52;;;19.85;;
76357;SDS011;65185;21.060;105.826;2023-06-14T03:06:46;27.90;;;19.83;;
76357;SDS011;65185;21.060;105.826;2023-06-14T03:09:15;28.40;;;19.70;;
76357;SDS011;65185;21.060;105.826;2023-06-14T03:11:42;29.83;;;20.60;;
76357;SDS011;65185;21.060;105.826;2023-06-14T03:14:09;28.95;;;20.05;;
76357;SDS011;65185;21.060;105.826;2023-06-14T03:16:36;30.58;;;18.70;;
76357;SDS011;65185;21.060;105.826;2023-06-14T03:19:03;28.67;;;19.15;;
76357;SDS011;65185;21.060;105.826;2023-06-14T03:21:30;27.75;;;19.38;;
76357;SDS011;65185;21.060;105.826;2023-06-14T03:23:57;34.33;;;21.83;;
76357;SDS011;65185;21.060;105.826;2023-06-14T03:26:25;28.35;;;20.98;;
76357;SDS011;65185;21.060;105.826;2023-06-14T03:28:51;30.50;;;20.48;;
76357;SDS011;65185;21.060;105.826;2023-06-14T03:31:18;29.10;;;20.65;;
76357;SDS011;65185;21.060;105.826;2023-06-14T03:33:45;30.10;;;20.85;;
76357;SDS011;65185;21.060;105.826;2023-06-14T03:36:12;27.75;;;20.40;;
76357;SDS011;65185;21.060;105.826;2023-06-14T03:38:38;31.00;;;21.20;;
76357;SDS011;65185;21.060;105.826;2023-06-14T03:41:05;27.52;;;19.52;;
76357;SDS011;65185;21.060;105.826;2023-06-14T03:43:32;25.95;;;18.00;;
76357;SDS011;65185;21.060;105.826;2023-06-14T03:45:59;25.90;;;18.23;;
76357;SDS011;65185;21.060;105.826;2023-06-14T03:48:26;22.17;;;18.52;;
76357;SDS011;65185;21.060;105.826;2023-06-14T03:50:53;24.23;;;17.35;;
76357;SDS011;65185;21.060;105.826;2023-06-14T03:53:20;23.00;;;16.33;;
76357;SDS011;65185;21.060;105.826;2023-06-14T03:55:49;24.13;;;17.33;;
76357;SDS011;65185;21.060;105.826;2023-06-14T03:58:19;22.63;;;16.52;;
76357;SDS011;65185;21.060;105.826;2023-06-14T04:00:46;21.63;;;15.98;;
76357;SDS011;65185;21.060;105.826;2023-06-14T04:03:13;21.08;;;15.20;;
76357;SDS011;65185;21.060;105.826;2023-06-14T04:05:41;19.15;;;13.95;;
76357;SDS011;65185;21.060;105.826;2023-06-14T04:08:08;21.25;;;15.82;;
76357;SDS011;65185;21.060;105.826;2023-06-14T04:10:35;22.38;;;15.18;;
76357;SDS011;65185;21.060;105.826;2023-06-14T04:13:02;21.83;;;16.00;;
76357;SDS011;65185;21.060;105.826;2023-06-14T04:15:30;19.75;;;15.13;;
76357;SDS011;65185;21.060;105.826;2023-06-14T04:17:56;22.95;;;15.60;;
76357;SDS011;65185;21.060;105.826;2023-06-14T04:20:23;22.33;;;15.30;;
76357;SDS011;65185;21.060;105.826;2023-06-14T04:22:51;21.05;;;15.18;;
76357;SDS011;65185;21.060;105.826;2023-06-14T04:25:22;22.70;;;16.40;;
76357;SDS011;65185;21.060;105.826;2023-06-14T04:27:51;23.70;;;16.10;;
76357;SDS011;65185;21.060;105.826;2023-06-14T04:30:18;21.73;;;15.68;;
76357;SDS011;65185;21.060;105.826;2023-06-14T04:32:46;23.58;;;16.90;;
76357;SDS011;65185;21.060;105.826;2023-06-14T04:35:15;24.67;;;18.25;;
76357;SDS011;65185;21.060;105.826;2023-06-14T04:37:42;27.05;;;18.65;;
76357;SDS011;65185;21.060;105.826;2023-06-14T04:40:10;26.02;;;18.50;;
76357;SDS011;65185;21.060;105.826;2023-06-14T04:42:37;24.80;;;18.48;;
76357;SDS011;65185;21.060;105.826;2023-06-14T04:45:06;29.38;;;20.17;;
76357;SDS011;65185;21.060;105.826;2023-06-14T04:47:34;26.10;;;19.83;;
76357;SDS011;65185;21.060;105.826;2023-06-14T04:50:06;32.80;;;24.08;;
76357;SDS011;65185;21.060;105.826;2023-06-14T04:52:33;27.92;;;20.65;;
76357;SDS011;65185;21.060;105.826;2023-06-14T04:55:01;26.83;;;20.42;;
76357;SDS011;65185;21.060;105.826;2023-06-14T04:57:28;27.95;;;20.52;;
76357;SDS011;65185;21.060;105.826;2023-06-14T04:59:56;27.30;;;20.10;;
76357;SDS011;65185;21.060;105.826;2023-06-14T05:02:26;29.70;;;22.42;;
76357;SDS011;65185;21.060;105.826;2023-06-14T05:04:56;27.48;;;20.45;;
76357;SDS011;65185;21.060;105.826;2023-06-14T05:07:24;27.27;;;21.13;;
76357;SDS011;65185;21.060;105.826;2023-06-14T05:09:51;25.55;;;19.52;;
76357;SDS011;65185;21.060;105.826;2023-06-14T05:12:18;24.00;;;17.73;;
76357;SDS011;65185;21.060;105.826;2023-06-14T05:14:46;25.02;;;19.15;;
76357;SDS011;65185;21.060;105.826;2023-06-14T05:17:13;27.23;;;21.25;;
76357;SDS011;65185;21.060;105.826;2023-06-14T05:19:42;26.20;;;19.83;;
76357;SDS011;65185;21.060;105.826;2023-06-14T05:22:09;31.70;;;22.00;;
76357;SDS011;65185;21.060;105.826;2023-06-14T05:24:36;31.08;;;21.95;;
76357;SDS011;65185;21.060;105.826;2023-06-14T05:27:03;24.92;;;18.83;;
76357;SDS011;65185;21.060;105.826;2023-06-14T05:29:31;25.65;;;17.92;;
76357;SDS011;65185;21.060;105.826;2023-06-14T05:31:58;20.17;;;15.52;;
76357;SDS011;65185;21.060;105.826;2023-06-14T05:34:25;21.10;;;16.63;;
76357;SDS011;65185;21.060;105.826;2023-06-14T05:36:52;21.15;;;16.98;;
76357;SDS011;65185;21.060;105.826;2023-06-14T05:39:21;20.50;;;15.43;;
76357;SDS011;65185;21.060;105.826;2023-06-14T05:41:49;21.27;;;15.38;;
76357;SDS011;65185;21.060;105.826;2023-06-14T05:44:16;22.52;;;15.13;;
76357;SDS011;65185;21.060;105.826;2023-06-14T05:46:43;19.73;;;14.30;;
76357;SDS011;65185;21.060;105.826;2023-06-14T05:49:16;19.00;;;14.77;;
76357;SDS011;65185;21.060;105.826;2023-06-14T05:51:43;20.10;;;14.70;;
76357;SDS011;65185;21.060;105.826;2023-06-14T05:54:10;20.42;;;15.18;;
76357;SDS011;65185;21.060;105.826;2023-06-14T05:56:37;20.83;;;15.73;;
76357;SDS011;65185;21.060;105.826;2023-06-14T05:59:03;20.30;;;15.05;;
76357;SDS011;65185;21.060;105.826;2023-06-14T06:01:31;19.98;;;14.85;;
76357;SDS011;65185;21.060;105.826;2023-06-14T06:03:59;21.17;;;15.15;;
76357;SDS011;65185;21.060;105.826;2023-06-14T06:06:26;22.60;;;16.35;;
76357;SDS011;65185;21.060;105.826;2023-06-14T06:08:53;19.77;;;15.57;;
76357;SDS011;65185;21.060;105.826;2023-06-14T06:11:21;24.33;;;16.80;;
76357;SDS011;65185;21.060;105.826;2023-06-14T06:13:48;19.70;;;16.00;;
76357;SDS011;65185;21.060;105.826;2023-06-14T06:16:16;23.58;;;18.23;;
76357;SDS011;65185;21.060;105.826;2023-06-14T06:18:43;23.27;;;17.45;;
76357;SDS011;65185;21.060;105.826;2023-06-14T06:21:10;19.60;;;16.30;;
76357;SDS011;65185;21.060;105.826;2023-06-14T06:23:36;22.40;;;17.08;;
76357;SDS011;65185;21.060;105.826;2023-06-14T06:26:03;21.50;;;16.70;;
76357;SDS011;65185;21.060;105.826;2023-06-14T06:28:29;21.10;;;16.30;;
76357;SDS011;65185;21.060;105.826;2023-06-14T06:30:56;23.48;;;17.02;;
76357;SDS011;65185;21.060;105.826;2023-06-14T06:33:22;30.60;;;19.92;;
76357;SDS011;65185;21.060;105.826;2023-06-14T06:35:49;25.40;;;18.83;;
76357;SDS011;65185;21.060;105.826;2023-06-14T06:38:16;25.60;;;20.35;;
76357;SDS011;65185;21.060;105.826;2023-06-14T06:40:44;24.10;;;18.08;;
76357;SDS011;65185;21.060;105.826;2023-06-14T06:43:10;23.52;;;18.27;;
76357;SDS011;65185;21.060;105.826;2023-06-14T06:45:42;28.40;;;20.30;;
76357;SDS011;65185;21.060;105.826;2023-06-14T06:48:09;30.38;;;22.58;;
76357;SDS011;65185;21.060;105.826;2023-06-14T06:50:36;24.88;;;18.90;;
76357;SDS011;65185;21.060;105.826;2023-06-14T06:53:02;22.35;;;17.45;;
76357;SDS011;65185;21.060;105.826;2023-06-14T06:55:29;23.08;;;18.45;;
76357;SDS011;65185;21.060;105.826;2023-06-14T06:57:56;27.10;;;17.80;;
76357;SDS011;65185;21.060;105.826;2023-06-14T07:00:23;24.13;;;18.88;;
76357;SDS011;65185;21.060;105.826;2023-06-14T07:02:49;27.80;;;20.58;;
76357;SDS011;65185;21.060;105.826;2023-06-14T07:05:16;28.02;;;20.83;;
76357;SDS011;65185;21.060;105.826;2023-06-14T07:07:42;25.70;;;18.80;;
76357;SDS011;65185;21.060;105.826;2023-06-14T07:10:09;23.85;;;18.77;;
76357;SDS011;65185;21.060;105.826;2023-06-14T07:12:35;27.55;;;21.42;;
76357;SDS011;65185;21.060;105.826;2023-06-14T07:15:05;34.20;;;22.17;;
76357;SDS011;65185;21.060;105.826;2023-06-14T07:17:34;28.20;;;21.23;;
76357;SDS011;65185;21.060;105.826;2023-06-14T07:20:01;26.20;;;20.05;;
76357;SDS011;65185;21.060;105.826;2023-06-14T07:22:39;23.30;;;18.75;;
76357;SDS011;65185;21.060;105.826;2023-06-14T07:25:09;26.92;;;17.25;;
76357;SDS011;65185;21.060;105.826;2023-06-14T07:27:40;22.95;;;16.33;;
76357;SDS011;65185;21.060;105.826;2023-06-14T07:30:07;20.77;;;15.60;;
76357;SDS011;65185;21.060;105.826;2023-06-14T07:32:35;19.23;;;14.20;;
76357;SDS011;65185;21.060;105.826;2023-06-14T07:35:02;20.52;;;14.15;;
76357;SDS011;65185;21.060;105.826;2023-06-14T07:37:29;20.13;;;14.48;;
76357;SDS011;65185;21.060;105.826;2023-06-14T07:39:56;18.75;;;13.82;;
76357;SDS011;65185;21.060;105.826;2023-06-14T07:42:22;18.95;;;14.10;;
76357;SDS011;65185;21.060;105.826;2023-06-14T07:44:49;17.77;;;12.93;;
76357;SDS011;65185;21.060;105.826;2023-06-14T07:47:17;20.70;;;14.25;;
76357;SDS011;65185;21.060;105.826;2023-06-14T07:49:44;20.17;;;14.20;;
76357;SDS011;65185;21.060;105.826;2023-06-14T07:52:10;19.40;;;13.07;;
76357;SDS011;65185;21.060;105.826;2023-06-14T07:54:38;19.70;;;13.23;;
76357;SDS011;65185;21.060;105.826;2023-06-14T07:57:06;16.20;;;12.18;;
76357;SDS011;65185;21.060;105.826;2023-06-14T07:59:34;17.77;;;12.85;;
76357;SDS011;65185;21.060;105.826;2023-06-14T08:02:00;19.05;;;14.05;;
76357;SDS011;65185;21.060;105.826;2023-06-14T08:04:27;21.48;;;14.38;;
76357;SDS011;65185;21.060;105.826;2023-06-14T08:09:53;20.15;;;15.00;;
76357;SDS011;65185;21.060;105.826;2023-06-14T08:12:19;19.08;;;14.73;;
76357;SDS011;65185;21.060;105.826;2023-06-14T08:14:46;20.95;;;16.40;;
76357;SDS011;65185;21.060;105.826;2023-06-14T08:17:12;22.50;;;15.68;;
76357;SDS011;65185;21.060;105.826;2023-06-14T08:19:39;25.83;;;17.77;;
76357;SDS011;65185;21.060;105.826;2023-06-14T08:22:06;24.55;;;17.42;;
76357;SDS011;65185;21.060;105.826;2023-06-14T08:24:33;22.92;;;16.52;;
76357;SDS011;65185;21.060;105.826;2023-06-14T08:26:59;21.65;;;16.60;;
76357;SDS011;65185;21.060;105.826;2023-06-14T08:29:26;22.13;;;16.98;;
76357;SDS011;65185;21.060;105.826;2023-06-14T08:31:54;22.83;;;17.67;;
76357;SDS011;65185;21.060;105.826;2023-06-14T08:34:22;23.45;;;16.63;;
76357;SDS011;65185;21.060;105.826;2023-06-14T08:36:51;22.77;;;16.90;;
76357;SDS011;65185;21.060;105.826;2023-06-14T08:39:18;25.67;;;19.58;;
76357;SDS011;65185;21.060;105.826;2023-06-14T08:41:47;23.73;;;17.30;;
76357;SDS011;65185;21.060;105.826;2023-06-14T08:44:17;23.17;;;17.35;;
76357;SDS011;65185;21.060;105.826;2023-06-14T08:46:43;25.60;;;17.40;;
76357;SDS011;65185;21.060;105.826;2023-06-14T08:49:11;21.92;;;17.33;;
76357;SDS011;65185;21.060;105.826;2023-06-14T08:51:39;24.73;;;17.55;;
76357;SDS011;65185;21.060;105.826;2023-06-14T08:54:07;23.13;;;17.50;;
76357;SDS011;65185;21.060;105.826;2023-06-14T08:56:34;23.25;;;17.80;;
76357;SDS011;65185;21.060;105.826;2023-06-14T08:59:03;25.10;;;18.05;;
76357;SDS011;65185;21.060;105.826;2023-06-14T09:01:35;25.77;;;18.83;;
76357;SDS011;65185;21.060;105.826;2023-06-14T09:04:04;23.35;;;17.35;;
76357;SDS011;65185;21.060;105.826;2023-06-14T09:06:33;27.13;;;18.83;;
76357;SDS011;65185;21.060;105.826;2023-06-14T09:09:02;24.23;;;17.85;;
76357;SDS011;65185;21.060;105.826;2023-06-14T09:11:29;26.25;;;18.23;;
76357;SDS011;65185;21.060;105.826;2023-06-14T09:13:56;22.20;;;16.60;;
76357;SDS011;65185;21.060;105.826;2023-06-14T09:16:23;21.02;;;16.23;;
76357;SDS011;65185;21.060;105.826;2023-06-14T09:18:51;21.63;;;16.38;;
76357;SDS011;65185;21.060;105.826;2023-06-14T09:21:19;23.92;;;15.68;;
76357;SDS011;65185;21.060;105.826;2023-06-14T09:23:47;20.92;;;15.50;;
76357;SDS011;65185;21.060;105.826;2023-06-14T09:26:15;23.50;;;17.30;;
76357;SDS011;65185;21.060;105.826;2023-06-14T09:28:45;21.35;;;16.00;;
76357;SDS011;65185;21.060;105.826;2023-06-14T09:31:16;20.48;;;15.32;;
76357;SDS011;65185;21.060;105.826;2023-06-14T09:33:44;20.88;;;15.57;;
76357;SDS011;65185;21.060;105.826;2023-06-14T09:36:15;19.48;;;14.88;;
76357;SDS011;65185;21.060;105.826;2023-06-14T09:38:52;23.15;;;14.98;;
76357;SDS011;65185;21.060;105.826;2023-06-14T09:41:36;19.08;;;14.90;;
76357;SDS011;65185;21.060;105.826;2023-06-14T09:44:05;20.10;;;14.13;;
76357;SDS011;65185;21.060;105.826;2023-06-14T09:46:33;22.85;;;15.40;;
76357;SDS011;65185;21.060;105.826;2023-06-14T09:49:01;20.83;;;14.82;;
76357;SDS011;65185;21.060;105.826;2023-06-14T09:51:28;20.27;;;14.82;;
76357;SDS011;65185;21.060;105.826;2023-06-14T09:54:00;21.00;;;14.98;;
76357;SDS011;65185;21.060;105.826;2023-06-14T09:56:40;19.10;;;14.20;;
76357;SDS011;65185;21.060;105.826;2023-06-14T09:59:10;20.88;;;15.73;;
76357;SDS011;65185;21.060;105.826;2023-06-14T10:01:44;20.00;;;15.20;;
76357;SDS011;65185;21.060;105.826;2023-06-14T10:04:12;20.55;;;15.10;;
76357;SDS011;65185;21.060;105.826;2023-06-14T10:06:40;19.80;;;14.52;;
76357;SDS011;65185;21.060;105.826;2023-06-14T10:09:11;19.15;;;15.32;;
76357;SDS011;65185;21.060;105.826;2023-06-14T10:11:39;20.95;;;14.85;;
76357;SDS011;65185;21.060;105.826;2023-06-14T10:14:15;21.17;;;15.65;;
76357;SDS011;65185;21.060;105.826;2023-06-14T10:19:30;21.25;;;15.90;;
76357;SDS011;65185;21.060;105.826;2023-06-14T10:22:35;19.15;;;15.40;;
76357;SDS011;65185;21.060;105.826;2023-06-14T10:25:07;19.92;;;14.98;;
76357;SDS011;65185;21.060;105.826;2023-06-14T10:27:38;20.63;;;15.52;;
76357;SDS011;65185;21.060;105.826;2023-06-14T10:30:07;24.30;;;15.00;;
76357;SDS011;65185;21.060;105.826;2023-06-14T10:32:34;20.52;;;15.35;;
76357;SDS011;65185;21.060;105.826;2023-06-14T10:35:04;20.85;;;15.95;;
76357;SDS011;65185;21.060;105.826;2023-06-14T10:37:34;20.10;;;15.00;;
76357;SDS011;65185;21.060;105.826;2023-06-14T10:40:01;16.85;;;13.38;;
76357;SDS011;65185;21.060;105.826;2023-06-14T10:42:32;20.75;;;13.70;;
76357;SDS011;65185;21.060;105.826;2023-06-14T10:45:00;17.73;;;13.20;;
76357;SDS011;65185;21.060;105.826;2023-06-14T10:50:05;18.45;;;13.85;;
76357;SDS011;65185;21.060;105.826;2023-06-14T10:52:37;16.30;;;12.85;;
76357;SDS011;65185;21.060;105.826;2023-06-14T10:57:41;16.48;;;12.13;;
76357;SDS011;65185;21.060;105.826;2023-06-14T11:00:12;19.15;;;13.27;;
76357;SDS011;65185;21.060;105.826;2023-06-14T11:05:18;17.98;;;13.25;;
76357;SDS011;65185;21.060;105.826;2023-06-14T11:10:36;19.63;;;13.75;;
76357;SDS011;65185;21.060;105.826;2023-06-14T11:13:07;20.67;;;13.93;;
76357;SDS011;65185;21.060;105.826;2023-06-14T11:15:35;18.73;;;13.18;;
76357;SDS011;65185;21.060;105.826;2023-06-14T11:18:04;18.13;;;13.35;;
76357;SDS011;65185;21.060;105.826;2023-06-14T11:20:32;18.95;;;14.35;;
76357;SDS011;65185;21.060;105.826;2023-06-14T11:23:04;17.83;;;13.55;;
76357;SDS011;65185;21.060;105.826;2023-06-14T11:25:30;19.48;;;13.57;;
76357;SDS011;65185;21.060;105.826;2023-06-14T11:27:57;20.45;;;13.82;;
76357;SDS011;65185;21.060;105.826;2023-06-14T11:30:24;19.38;;;14.50;;
76357;SDS011;65185;21.060;105.826;2023-06-14T11:32:52;20.17;;;14.57;;
76357;SDS011;65185;21.060;105.826;2023-06-14T11:35:22;20.33;;;13.95;;
76357;SDS011;65185;21.060;105.826;2023-06-14T11:37:55;16.98;;;13.73;;
76357;SDS011;65185;21.060;105.826;2023-06-14T11:40:25;18.65;;;14.10;;
76357;SDS011;65185;21.060;105.826;2023-06-14T11:42:59;19.27;;;14.13;;
76357;SDS011;65185;21.060;105.826;2023-06-14T11:45:27;18.88;;;14.30;;
76357;SDS011;65185;21.060;105.826;2023-06-14T11:47:55;22.92;;;17.20;;
76357;SDS011;65185;21.060;105.826;2023-06-14T11:50:25;24.17;;;17.10;;
76357;SDS011;65185;21.060;105.826;2023-06-14T11:52:53;23.25;;;16.83;;
76357;SDS011;65185;21.060;105.826;2023-06-14T11:55:25;22.15;;;16.13;;
76357;SDS011;65185;21.060;105.826;2023-06-14T11:57:53;22.52;;;15.50;;
76357;SDS011;65185;21.060;105.826;2023-06-14T12:00:24;27.13;;;15.80;;
76357;SDS011;65185;21.060;105.826;2023-06-14T12:02:54;21.52;;;15.85;;
76357;SDS011;65185;21.060;105.826;2023-06-14T12:05:22;22.35;;;15.88;;
76357;SDS011;65185;21.060;105.826;2023-06-14T12:07:57;19.08;;;14.98;;
76357;SDS011;65185;21.060;105.826;2023-06-14T12:10:25;20.55;;;15.23;;
76357;SDS011;65185;21.060;105.826;2023-06-14T12:12:56;21.15;;;17.23;;
76357;SDS011;65185;21.060;105.826;2023-06-14T12:15:24;21.90;;;14.80;;
76357;SDS011;65185;21.060;105.826;2023-06-14T12:17:54;20.83;;;15.88;;
76357;SDS011;65185;21.060;105.826;2023-06-14T12:20:21;21.23;;;15.77;;
76357;SDS011;65185;21.060;105.826;2023-06-14T12:22:54;22.73;;;15.95;;
76357;SDS011;65185;21.060;105.826;2023-06-14T12:25:28;21.88;;;16.45;;
76357;SDS011;65185;21.060;105.826;2023-06-14T12:28:04;22.92;;;17.30;;
76357;SDS011;65185;21.060;105.826;2023-06-14T12:30:32;24.65;;;15.52;;
76357;SDS011;65185;21.060;105.826;2023-06-14T12:32:59;21.48;;;16.40;;
76357;SDS011;65185;21.060;105.826;2023-06-14T12:35:25;20.17;;;15.70;;
76357;SDS011;65185;21.060;105.826;2023-06-14T12:37:52;23.20;;;17.95;;
76357;SDS011;65185;21.060;105.826;2023-06-14T12:40:19;23.85;;;17.85;;
76357;SDS011;65185;21.060;105.826;2023-06-14T12:42:45;23.50;;;18.38;;
76357;SDS011;65185;21.060;105.826;2023-06-14T12:47:41;24.52;;;18.52;;
76357;SDS011;65185;21.060;105.826;2023-06-14T12:50:08;26.30;;;19.20;;
76357;SDS011;65185;21.060;105.826;2023-06-14T12:52:34;26.80;;;19.52;;
76357;SDS011;65185;21.060;105.826;2023-06-14T12:55:04;26.77;;;19.23;;
76357;SDS011;65185;21.060;105.826;2023-06-14T12:57:31;26.58;;;19.52;;
76357;SDS011;65185;21.060;105.826;2023-06-14T12:59:59;27.27;;;19.25;;
76357;SDS011;65185;21.060;105.826;2023-06-14T13:02:26;28.20;;;20.33;;
76357;SDS011;65185;21.060;105.826;2023-06-14T13:04:52;25.98;;;19.38;;
76357;SDS011;65185;21.060;105.826;2023-06-14T13:07:19;27.40;;;20.13;;
76357;SDS011;65185;21.060;105.826;2023-06-14T13:09:46;26.30;;;20.35;;
76357;SDS011;65185;21.060;105.826;2023-06-14T13:12:12;27.60;;;20.77;;
76357;SDS011;65185;21.060;105.826;2023-06-14T13:14:39;26.90;;;19.75;;
76357;SDS011;65185;21.060;105.826;2023-06-14T13:17:07;26.58;;;19.88;;
76357;SDS011;65185;21.060;105.826;2023-06-14T13:19:35;25.35;;;19.30;;
76357;SDS011;65185;21.060;105.826;2023-06-14T13:22:02;26.85;;;19.50;;
76357;SDS011;65185;21.060;105.826;2023-06-14T13:24:29;28.70;;;19.10;;
76357;SDS011;65185;21.060;105.826;2023-06-14T13:26:56;24.77;;;19.10;;
76357;SDS011;65185;21.060;105.826;2023-06-14T13:29:23;26.30;;;21.00;;
76357;SDS011;65185;21.060;105.826;2023-06-14T13:31:52;30.73;;;20.65;;
76357;SDS011;65185;21.060;105.826;2023-06-14T13:34:18;29.27;;;20.80;;
76357;SDS011;65185;21.060;105.826;2023-06-14T13:36:45;25.85;;;18.30;;
76357;SDS011;65185;21.060;105.826;2023-06-14T13:39:12;27.00;;;20.08;;
76357;SDS011;65185;21.060;105.826;2023-06-14T13:41:42;26.23;;;19.83;;
76357;SDS011;65185;21.060;105.826;2023-06-14T13:44:08;30.35;;;20.73;;
76357;SDS011;65185;21.060;105.826;2023-06-14T13:46:39;31.10;;;21.65;;
76357;SDS011;65185;21.060;105.826;2023-06-14T13:49:08;30.05;;;22.98;;
76357;SDS011;65185;21.060;105.826;2023-06-14T13:51:35;34.63;;;23.58;;
76357;SDS011;65185;21.060;105.826;2023-06-14T13:54:02;33.10;;;24.02;;
76357;SDS011;65185;21.060;105.826;2023-06-14T13:56:29;37.42;;;24.45;;
76357;SDS011;65185;21.060;105.826;2023-06-14T13:58:55;37.20;;;24.92;;
76357;SDS011;65185;21.060;105.826;2023-06-14T14:01:22;37.42;;;25.27;;
76357;SDS011;65185;21.060;105.826;2023-06-14T14:03:50;49.10;;;32.95;;
76357;SDS011;65185;21.060;105.826;2023-06-14T14:06:17;51.13;;;35.40;;
76357;SDS011;65185;21.060;105.826;2023-06-14T14:08:44;51.88;;;36.08;;
76357;SDS011;65185;21.060;105.826;2023-06-14T14:11:10;54.85;;;35.78;;
76357;SDS011;65185;21.060;105.826;2023-06-14T14:13:37;54.65;;;36.58;;
76357;SDS011;65185;21.060;105.826;2023-06-14T14:16:05;55.58;;;39.40;;
76357;SDS011;65185;21.060;105.826;2023-06-14T14:18:32;53.65;;;37.10;;
76357;SDS011;65185;21.060;105.826;2023-06-14T14:20:59;48.58;;;34.08;;
76357;SDS011;65185;21.060;105.826;2023-06-14T14:23:26;45.85;;;32.88;;
76357;SDS011;65185;21.060;105.826;2023-06-14T14:25:52;49.53;;;35.20;;
76357;SDS011;65185;21.060;105.826;2023-06-14T14:28:19;45.00;;;34.67;;
76357;SDS011;65185;21.060;105.826;2023-06-14T14:30:46;42.00;;;33.13;;